Latest Weather Observations for Normanton

IDQ60801

Issued at 9:35 am EST Saturday 1 November 2014 (issued every 30 minutes, with the page automatically refreshed every 10 minutes)

About weather observations | Map of weather stations | Latest weather observations for QLD | Other Formats
Station Details ID: 029063 Name: NORMANTON AIRPORT Lat: -17.69 Lon: 141.07 Height: 18.42 m
Data from the previous 72 hours. | See also: Recent months at Normanton
Date/Time
EST
Temp
°C
App
Temp
°C
Dew
Point
Rel
Hum
%
Delta-T
°C
Wind Press
QNH
hPa
Press
MSL
hPa
Rain
since 9 am
mm
Dir
 
Spd
km/h
Gust
km/h
Spd
kts
Gust
kts
01/09:30am 30.5 29.6 18.2 47 7.9 N 20 32 11 17 1013.6 - 0.0
01/09:00am 29.3 27.9 18.7 52 6.8 N 24 33 13 18 1013.6 1013.4 0.0
01/08:30am 28.6 27.9 19.5 58 5.9 N 22 32 12 17 1013.5 - 0.0
01/08:00am 27.4 26.6 20.0 64 4.8 N 24 35 13 19 1013.2 - 0.0
01/07:30am 26.9 27.3 21.0 70 3.9 N 20 33 11 18 1012.9 - 0.0
01/07:00am 25.9 28.1 22.6 82 2.2 N 15 22 8 12 1012.3 - 0.0
01/06:30am 25.2 27.8 23.3 89 1.3 N 15 19 8 10 1011.9 - 0.0
01/06:00am 25.0 28.0 23.4 91 1.1 N 13 20 7 11 1011.3 1011.0 0.0
01/05:30am 25.1 27.7 23.3 90 1.2 N 15 20 8 11 1011.0 - 0.0
01/05:00am 25.2 27.9 23.4 90 1.2 N 15 22 8 12 1010.5 - 0.0
01/04:30am 25.2 27.5 23.4 90 1.2 NNE 17 22 9 12 1010.2 - 0.0
01/04:00am 25.3 27.5 23.9 92 1.0 NNE 19 28 10 15 1009.6 - 0.0
01/03:30am 25.4 27.6 24.2 93 0.8 NNE 20 33 11 18 1009.2 - 0.0
01/03:00am 24.7 27.3 24.0 96 0.5 NE 17 24 9 13 1008.6 1008.5 0.0
01/02:30am 24.6 28.8 23.4 93 0.8 NNW 7 9 4 5 1007.8 - 0.0
01/02:00am 24.9 29.1 23.5 92 1.0 N 7 9 4 5 1008.0 - 0.0
01/01:30am 25.3 28.7 23.4 89 1.3 NW 11 11 6 6 1007.9 - 0.0
01/01:00am 25.5 29.4 23.6 89 1.3 NW 9 11 5 6 1008.3 - 0.0
01/12:30am 25.7 29.6 23.6 88 1.4 WNW 9 11 5 6 1008.8 - 0.0
01/12:00am 26.1 29.9 23.4 85 1.8 NW 9 11 5 6 1009.1 1009.0 0.0
 
Date/Time
EST
Temp
°C
App
Temp
°C
Dew
Point
Rel
Hum
%
Delta-T
°C
Wind Press
QNH
hPa
Press
MSL
hPa
Rain
since 9 am
mm
Dir
 
Spd
km/h
Gust
km/h
Spd
kts
Gust
kts
31/11:30pm 26.3 30.1 23.4 84 2.0 WNW 9 11 5 6 1009.4 - 0.0
31/11:00pm 26.5 30.2 23.2 82 2.2 W 9 11 5 6 1009.7 - 0.0
31/10:30pm 26.9 30.4 22.9 79 2.7 WNW 9 11 5 6 1010.0 - 0.0
31/10:00pm 27.3 30.3 22.7 76 3.1 W 11 15 6 8 1010.2 - 0.0
31/09:30pm 27.6 30.3 22.1 72 3.7 WNW 11 13 6 7 1010.0 - 0.0
31/09:00pm 28.0 30.2 21.1 66 4.6 W 11 13 6 7 1009.8 1009.6 0.0
31/08:30pm 28.4 30.1 20.1 60 5.4 W 11 13 6 7 1009.7 - 0.0
31/08:00pm 28.9 30.0 18.9 54 6.5 W 11 15 6 8 1009.5 - 0.0
31/07:30pm 29.5 29.7 18.6 52 7.0 WNW 15 20 8 11 1009.2 - 0.0
31/07:00pm 30.2 30.3 18.3 49 7.6 WNW 15 20 8 11 1008.8 - 0.0
31/06:30pm 30.8 30.9 19.2 50 7.6 WNW 17 20 9 11 1008.5 - 0.0
31/06:00pm 31.9 32.2 19.5 47 8.2 W 17 22 9 12 1008.2 1007.9 0.0
31/05:30pm 32.4 32.2 19.3 46 8.6 WNW 19 26 10 14 1008.0 - 0.0
31/05:00pm 32.7 32.4 19.6 46 8.6 WNW 20 28 11 15 1007.9 - 0.0
31/04:30pm 33.7 32.6 19.4 43 9.4 NW 24 33 13 18 1007.9 - 0.0
31/04:00pm 33.5 32.1 18.8 41 9.6 NW 24 32 13 17 1008.0 - 0.0
31/03:30pm 33.3 32.6 18.3 41 9.7 WNW 19 30 10 16 1008.2 - 0.0
31/03:00pm 33.7 32.4 18.2 39 10.1 WNW 22 32 12 17 1008.4 1008.3 0.0
31/02:30pm 33.8 32.0 17.9 38 10.3 NW 24 32 13 17 1008.6 - 0.0
31/02:00pm 33.8 31.6 17.9 38 10.3 NW 26 35 14 19 1008.9 - 0.0
31/01:30pm 34.3 31.6 17.5 36 10.8 NNW 28 39 15 21 1009.2 - 0.0
31/01:00pm 34.5 34.2 15.4 32 11.9 NNW 11 30 6 16 1009.8 - 0.0
31/12:30pm 34.1 33.4 15.5 32 11.6 N 13 28 7 15 1010.4 - 0.0
31/12:00pm 33.9 34.3 16.3 35 11.1 N 9 24 5 13 1011.0 1010.9 0.0
31/11:30am 32.4 30.9 15.4 36 10.6 N 17 28 9 15 1011.5 - 0.0
31/11:00am 31.8 30.7 17.3 42 9.2 N 19 30 10 16 1011.9 - 0.0
31/10:30am 31.0 30.5 18.7 48 8.0 N 19 30 10 16 1012.2 - 0.0
31/10:00am 29.8 29.5 19.5 54 6.7 N 20 33 11 18 1012.5 - 0.0
31/09:30am 29.1 29.4 20.3 59 5.8 N 19 28 10 15 1012.8 - 0.0
31/09:00am 29.1 29.8 21.6 64 5.0 N 20 30 11 16 1013.0 1012.8 0.0
31/08:30am 28.0 28.3 21.5 67 4.3 N 22 33 12 18 1013.0 - 0.0
31/08:00am 27.2 29.0 22.6 76 3.1 N 17 30 9 16 1013.1 - 0.0
31/07:30am 26.5 28.2 23.0 81 2.4 NNE 19 28 10 15 1012.7 - 0.0
31/07:00am 26.2 29.7 24.2 89 1.4 N 13 19 7 10 1012.1 - 0.0
31/06:30am 25.5 29.4 24.8 96 0.5 N 13 20 7 11 1011.5 - 0.0
31/06:00am 25.3 29.2 24.8 97 0.3 NNE 13 19 7 10 1010.9 1010.7 0.0
31/05:30am 25.4 29.6 24.7 96 0.5 NNE 11 17 6 9 1010.7 - 0.0
31/05:00am 25.6 29.8 24.7 95 0.6 NNE 11 17 6 9 1010.3 - 0.0
31/04:30am 25.6 29.9 24.9 96 0.5 NNE 11 19 6 10 1009.8 - 0.0
31/04:00am 25.5 29.8 25.5 100 0.0 NE 13 20 7 11 1009.5 - 0.0
31/03:30am 25.3 30.1 25.1 99 0.1 ENE 9 15 5 8 1009.2 - 0.0
31/03:00am 25.8 30.1 24.9 95 0.6 NNE 11 19 6 10 1008.9 1008.4 0.0
31/02:30am 25.3 28.5 24.4 95 0.6 NNE 15 20 8 11 1008.4 - 0.0
31/02:00am 25.7 29.9 24.1 91 1.1 N 9 13 5 7 1008.1 - 0.0
31/01:30am 25.7 30.2 23.9 90 1.2 WNW 7 9 4 5 1007.7 - 0.0
31/01:00am 25.9 30.5 24.1 90 1.2 WNW 7 9 4 5 1008.0 - 0.0
31/12:30am 26.1 30.7 24.1 89 1.4 NNW 7 9 4 5 1008.3 - 0.0
31/12:00am 26.5 30.8 24.3 88 1.5 N 9 11 5 6 1008.4 1008.3 0.0
 
Date/Time
EST
Temp
°C
App
Temp
°C
Dew
Point
Rel
Hum
%
Delta-T
°C
Wind Press
QNH
hPa
Press
MSL
hPa
Rain
since 9 am
mm
Dir
 
Spd
km/h
Gust
km/h
Spd
kts
Gust
kts
30/11:30pm 26.6 30.8 24.1 86 1.7 N 9 11 5 6 1008.9 - 0.0
30/11:00pm 27.2 31.1 24.3 84 2.0 NW 11 13 6 7 1009.0 - 0.0
30/10:30pm 27.5 30.8 23.9 81 2.5 NW 13 17 7 9 1009.1 - 0.0
30/10:00pm 27.7 30.6 23.9 80 2.6 NW 15 19 8 10 1009.2 - 0.0
30/09:30pm 28.0 30.6 24.0 79 2.8 NNW 17 20 9 11 1009.0 - 0.0
30/09:00pm 28.0 30.5 23.8 78 2.9 NW 17 20 9 11 1009.0 1008.7 0.0
30/08:30pm 28.2 30.6 23.6 76 3.2 NW 17 24 9 13 1008.7 - 0.0
30/08:00pm 28.5 30.2 23.0 72 3.8 NW 19 24 10 13 1008.5 - 0.0
30/07:30pm 28.9 30.2 22.6 69 4.3 NW 20 24 11 13 1008.2 - 0.0
30/07:00pm 29.3 30.3 22.8 68 4.4 NNW 22 28 12 15 1007.9 - 0.0
30/06:30pm 30.0 30.4 22.4 63 5.2 NW 24 28 13 15 1007.5 - 0.0
30/06:00pm 31.3 31.0 21.8 57 6.4 NW 26 32 14 17 1007.3 1007.0 0.0
30/05:30pm 32.1 31.8 21.9 54 6.9 NNW 26 32 14 17 1007.0 - 0.0
30/05:00pm 33.0 32.3 21.8 51 7.6 NNW 28 33 15 18 1007.1 - 0.0
30/04:30pm 33.5 34.2 22.3 52 7.7 NW 22 30 12 16 1007.2 - 0.0
30/04:00pm 34.0 33.8 22.1 50 8.1 NW 26 35 14 19 1007.1 - 0.0
30/03:30pm 34.8 33.9 22.2 48 8.6 NNW 30 43 16 23 1007.3 - 0.0
30/03:00pm 35.9 35.9 21.7 43 9.7 NW 24 32 13 17 1007.5 1007.3 0.0
30/02:30pm 35.9 35.5 21.7 43 9.7 NNW 26 37 14 20 1007.8 - 0.0
30/02:00pm 35.7 35.8 20.4 40 10.3 NNW 20 37 11 20 1008.1 - 0.0
30/01:30pm 36.6 37.8 20.0 38 11.1 NW 13 20 7 11 1008.5 - 0.0
30/01:00pm 35.5 36.1 19.4 38 10.7 NNW 15 26 8 14 1009.2 - 0.0
30/12:30pm 34.9 35.6 19.7 41 10.1 N 15 22 8 12 1010.0 - 0.0
30/12:00pm 34.6 35.6 19.4 40 10.1 N 13 17 7 9 1010.7 1010.7 0.0
30/11:30am 33.7 34.6 20.8 46 8.7 NNW 17 32 9 17 1011.2 - 0.0
30/11:00am 33.4 33.8 19.8 44 9.0 NNW 17 28 9 15 1011.7 - 0.0
30/10:30am 32.7 33.0 19.6 46 8.6 N 17 26 9 14 1012.1 - 0.0
30/10:00am 31.8 32.5 20.4 51 7.6 N 17 28 9 15 1012.3 - 0.0
30/09:30am 30.6 32.2 22.2 61 5.7 N 17 24 9 13 1012.6 - 0.0
30/09:00am 29.5 31.5 23.0 68 4.4 NNW 17 22 9 12 1012.7 1012.5 0.0
30/08:30am 29.3 31.9 24.0 73 3.7 N 17 26 9 14 1012.6 - 0.0
30/08:00am 28.0 30.6 24.0 79 2.8 N 17 26 9 14 1012.4 - 0.0
30/07:30am 26.9 29.4 24.4 86 1.7 N 19 24 10 13 1012.2 - 0.0
30/07:00am 26.3 29.9 24.3 89 1.4 N 13 19 7 10 1011.9 - 0.0
30/06:30am 25.6 29.4 24.0 91 1.1 N 11 17 6 9 1011.4 - 0.0
30/06:00am 25.5 28.8 23.9 91 1.1 N 13 17 7 9 1011.1 1010.9 0.0
30/05:30am 25.6 29.5 24.2 92 1.0 NW 11 15 6 8 1010.8 - 0.0
30/05:00am 25.4 29.7 24.2 93 0.8 W 9 13 5 7 1010.7 - 0.0
30/04:30am 25.6 30.4 24.2 92 1.0 WNW 6 9 3 5 1010.4 - 0.0
30/04:00am 25.5 29.2 23.9 91 1.1 W 11 13 6 7 1010.0 - 0.0
30/03:30am 25.9 31.3 23.9 89 1.4 S 2 7 1 4 1009.8 - 0.0
30/03:00am 26.3 30.4 24.0 87 1.6 N 9 11 5 6 1009.9 1009.6 0.0
30/02:30am 26.4 29.8 24.1 87 1.6 N 13 17 7 9 1009.5 - 0.0
30/02:00am 26.6 29.3 24.1 86 1.7 N 17 20 9 11 1009.4 - 0.0
30/01:30am 27.0 30.7 23.9 83 2.1 N 11 15 6 8 1009.7 - 0.0
30/01:00am 27.0 32.9 24.1 84 2.0 CALM 0 0 0 0 1010.2 - 0.0
30/12:30am 27.1 31.7 24.2 84 2.0 E 7 11 4 6 1010.6 - 0.0
30/12:00am 27.1 31.8 24.0 83 2.1 E 6 9 3 5 1010.5 1010.5 0.0
 
Date/Time
EST
Temp
°C
App
Temp
°C
Dew
Point
Rel
Hum
%
Delta-T
°C
Wind Press
QNH
hPa
Press
MSL
hPa
Rain
since 9 am
mm
Dir
 
Spd
km/h
Gust
km/h
Spd
kts
Gust
kts
29/11:30pm 27.2 32.0 24.1 83 2.1 SE 6 9 3 5 1010.7 - 0.0
29/11:00pm 27.2 29.6 24.3 84 2.0 S 19 32 10 17 1010.4 - 0.0
29/10:30pm 27.4 31.3 24.3 83 2.1 NW 11 15 6 8 1010.2 - 0.0
29/10:00pm 27.6 30.2 24.0 81 2.5 NNW 17 20 9 11 1009.8 - 0.0
29/09:30pm 27.6 30.7 23.6 79 2.7 N 13 17 7 9 1009.8 - 0.0
29/09:00pm 27.9 30.8 23.1 75 3.3 NNW 13 17 7 9 1009.8 1009.5 0.0
29/08:30pm 28.1 30.5 23.0 74 3.5 N 15 20 8 11 1009.4 - 0.0
29/08:00pm 28.6 30.0 22.6 70 4.1 NNW 19 22 10 12 1009.3 - 0.0
29/07:30pm 29.1 30.3 22.1 66 4.7 NNW 19 24 10 13 1009.3 - 0.0
29/07:00pm 29.8 30.3 22.0 63 5.3 NNW 22 26 12 14 1009.1 - 0.0
29/06:30pm 30.7 30.6 21.5 58 6.2 NNW 24 30 13 16 1008.6 - 0.0
29/06:00pm 32.4 33.3 21.9 54 7.1 NW 20 30 11 16 1008.5 1008.2 0.0
29/05:30pm 33.3 32.6 21.1 48 8.2 NNW 26 33 14 18 1008.2 - 0.0
29/05:00pm 34.4 32.8 20.0 42 9.6 NW 28 33 15 18 1008.0 - 0.0
29/04:30pm 35.6 33.2 18.2 35 11.4 WNW 28 35 15 19 1008.0 - 0.0
29/04:00pm 36.1 34.3 18.7 36 11.4 WNW 26 35 14 19 1007.9 - 0.0
29/03:30pm 36.3 34.7 19.3 37 11.3 NW 26 33 14 18 1008.0 - 0.0
29/03:00pm 37.7 36.3 19.6 34 12.1 NW 26 41 14 22 1008.3 1008.1 0.0
29/02:30pm 37.8 37.1 18.3 32 12.8 NW 19 35 10 19 1008.7 - 0.0
29/02:00pm 37.6 36.3 18.1 32 12.8 NW 22 35 12 19 1009.1 - 0.0
29/01:30pm 36.5 37.2 17.1 31 12.5 N 9 19 5 10 1009.6 - 0.0
29/01:00pm 37.0 37.8 18.1 33 12.4 NW 11 24 6 13 1010.1 - 0.0
29/12:30pm 36.5 37.9 18.6 35 11.8 WNW 9 20 5 11 1010.7 - 0.0
29/12:00pm 35.6 37.2 18.2 35 11.4 NNE 7 20 4 11 1011.3 1011.2 0.0
29/11:30am 34.2 35.0 19.1 41 9.9 N 13 24 7 13 1011.8 - 0.0
29/11:00am 33.9 35.3 20.3 45 9.1 NW 13 22 7 12 1012.3 - 0.0
29/10:30am 32.7 33.9 20.6 49 8.1 NW 15 26 8 14 1012.6 - 0.0
29/10:00am 32.1 33.5 21.0 52 7.4 N 15 22 8 12 1012.8 - 0.0

Other Formats:

Comma delimited format used in spreadsheet applications
http://www.bom.gov.au/fwo/IDQ60801/IDQ60801.94266.axf

JavaScript Object Notation format (JSON) in row-major order
http://www.bom.gov.au/fwo/IDQ60801/IDQ60801.94266.json